Gaz Venture — 3FLQ4 — position and weather

sailwx.info

Track history (hours):
 
Tides and Currents Weather Stations Pressure Air Temp Water Temp Dewpoint Dewpoint Depression Visibility Wind Speed Wind Dir Waves Ship Positions

Gaz Venture

Last reported at 2015-Jan-15 20:30 UTC. Time now 2015-Feb-01 08:44 UTC.
Position N 35°51' E 015°01'.
Warning: this ship's position is 16 days out of date.

Length 120 m; draft 7.5 m.

Type: Ship. MMSI: 356141000.

Date/timePositionNaut miles runAvg speedWind from/ knotsBaromVisibWave heightAir tempDewpointWater temp
2015-Jan-15 20:30N 35°51' E 015°01'7 7.5
2015-Jan-15 19:30N 35°53' E 014°52'1 0.7
2015-Jan-15 18:27N 35°53' E 014°51'0 0.0
2015-Jan-15 17:27N 35°53' E 014°51'0 0.0
2015-Jan-15 16:12N 35°53' E 014°51'0 0.0
2015-Jan-15 06:27N 35°53' E 014°51'0 0.0
2015-Jan-15 05:30N 35°53' E 014°51'0 0.0
2015-Jan-15 04:30N 35°53' E 014°51'0 0.0
2015-Jan-15 03:33N 35°53' E 014°51'0 0.0
2015-Jan-15 02:33N 35°53' E 014°51'0 0.0
2015-Jan-15 01:33N 35°53' E 014°51'0 0.0
2015-Jan-15 00:33N 35°53' E 014°51'0 0.0
2015-Jan-14 23:24N 35°53' E 014°51'0 0.0
2015-Jan-14 22:33N 35°53' E 014°51'0 0.0
2015-Jan-14 21:30N 35°53' E 014°51'0 0.0
2015-Jan-14 20:15N 35°53' E 014°51'0 0.0
2015-Jan-14 19:24N 35°53' E 014°51'0 0.0
2015-Jan-14 18:30N 35°53' E 014°51'0 0.0
2015-Jan-14 17:30N 35°53' E 014°51'0 0.0
2015-Jan-14 16:24N 35°53' E 014°51'0 0.0
2015-Jan-14 15:12N 35°53' E 014°51'0 0.0
2015-Jan-14 14:27N 35°53' E 014°51'0 0.0
2015-Jan-14 13:33N 35°53' E 014°51'0 0.0
2015-Jan-14 12:33N 35°53' E 014°51'0 0.0
2015-Jan-14 11:33N 35°53' E 014°51'0 0.0
2015-Jan-14 10:33N 35°53' E 014°51'0 0.0
2015-Jan-14 09:33N 35°53' E 014°51'0 0.0
2015-Jan-14 08:33N 35°53' E 014°51'0 0.0
2015-Jan-14 07:33N 35°53' E 014°51'0 0.0
2015-Jan-14 06:24N 35°53' E 014°51'0 0.0
2015-Jan-14 05:33N 35°53' E 014°51'0 0.0
2015-Jan-14 04:27N 35°53' E 014°51'0 0.0
2015-Jan-14 03:33N 35°53' E 014°51'0 0.0
2015-Jan-14 02:33N 35°53' E 014°51'0 0.0
2015-Jan-14 01:33N 35°53' E 014°51'0 0.0
2015-Jan-14 00:30N 35°53' E 014°51'0 0.0
2015-Jan-13 23:27N 35°53' E 014°51'0 0.0
2015-Jan-13 22:33N 35°53' E 014°51'0 0.0
2015-Jan-13 21:30N 35°53' E 014°51'0 0.0
2015-Jan-13 20:33N 35°53' E 014°51'0 0.0
2015-Jan-13 19:30N 35°53' E 014°51'0 0.0
2015-Jan-13 18:18N 35°53' E 014°51'221 4.3
2015-Jan-11 14:31N 32°53' E 012°15'0 0.0
2015-Jan-11 13:28N 32°53' E 012°15'  
Track history (hours):
 
Tides and Currents Weather Stations Pressure Air Temp Water Temp Dewpoint Dewpoint Depression Visibility Wind Speed Wind Dir Waves Ship Positions

Gaz Venture

Last reported at 2015-Jan-15 20:30 UTC. Time now 2015-Feb-01 08:44 UTC.
Position N 35°51' E 015°01'.
Warning: this ship's position is 16 days out of date.

Length 120 m; draft 7.5 m.

Type: Ship. MMSI: 356141000.

Date/timePositionNaut miles runAvg speedWind from/ knotsBaromVisibWave heightAir tempDewpointWater temp
2015-Jan-15 20:30N 35°51' E 015°01'7 7.5
2015-Jan-15 19:30N 35°53' E 014°52'1 0.7
2015-Jan-15 18:27N 35°53' E 014°51'0 0.0
2015-Jan-15 17:27N 35°53' E 014°51'0 0.0
2015-Jan-15 16:12N 35°53' E 014°51'0 0.0
2015-Jan-15 06:27N 35°53' E 014°51'0 0.0
2015-Jan-15 05:30N 35°53' E 014°51'0 0.0
2015-Jan-15 04:30N 35°53' E 014°51'0 0.0
2015-Jan-15 03:33N 35°53' E 014°51'0 0.0
2015-Jan-15 02:33N 35°53' E 014°51'0 0.0
2015-Jan-15 01:33N 35°53' E 014°51'0 0.0
2015-Jan-15 00:33N 35°53' E 014°51'0 0.0
2015-Jan-14 23:24N 35°53' E 014°51'0 0.0
2015-Jan-14 22:33N 35°53' E 014°51'0 0.0
2015-Jan-14 21:30N 35°53' E 014°51'0 0.0
2015-Jan-14 20:15N 35°53' E 014°51'0 0.0
2015-Jan-14 19:24N 35°53' E 014°51'0 0.0
2015-Jan-14 18:30N 35°53' E 014°51'0 0.0
2015-Jan-14 17:30N 35°53' E 014°51'0 0.0
2015-Jan-14 16:24N 35°53' E 014°51'0 0.0
2015-Jan-14 15:12N 35°53' E 014°51'0 0.0
2015-Jan-14 14:27N 35°53' E 014°51'0 0.0
2015-Jan-14 13:33N 35°53' E 014°51'0 0.0
2015-Jan-14 12:33N 35°53' E 014°51'0 0.0
2015-Jan-14 11:33N 35°53' E 014°51'0 0.0
2015-Jan-14 10:33N 35°53' E 014°51'0 0.0
2015-Jan-14 09:33N 35°53' E 014°51'0 0.0
2015-Jan-14 08:33N 35°53' E 014°51'0 0.0
2015-Jan-14 07:33N 35°53' E 014°51'0 0.0
2015-Jan-14 06:24N 35°53' E 014°51'0 0.0
2015-Jan-14 05:33N 35°53' E 014°51'0 0.0
2015-Jan-14 04:27N 35°53' E 014°51'0 0.0
2015-Jan-14 03:33N 35°53' E 014°51'0 0.0
2015-Jan-14 02:33N 35°53' E 014°51'0 0.0
2015-Jan-14 01:33N 35°53' E 014°51'0 0.0
2015-Jan-14 00:30N 35°53' E 014°51'0 0.0
2015-Jan-13 23:27N 35°53' E 014°51'0 0.0
2015-Jan-13 22:33N 35°53' E 014°51'0 0.0
2015-Jan-13 21:30N 35°53' E 014°51'0 0.0
2015-Jan-13 20:33N 35°53' E 014°51'0 0.0
2015-Jan-13 19:30N 35°53' E 014°51'0 0.0
2015-Jan-13 18:18N 35°53' E 014°51'221 4.3
2015-Jan-11 14:31N 32°53' E 012°15'0 0.0
2015-Jan-11 13:28N 32°53' E 012°15'  

Dump ship's entire track history